createdAt,value
2023-05-09T00:02:13.715Z,11.20
2023-05-09T00:04:43.937Z,11.75
2023-05-09T00:07:13.629Z,14.10
2023-05-09T00:09:42.360Z,12.00
2023-05-09T00:12:12.322Z,11.63
2023-05-09T00:14:41.588Z,12.65
2023-05-09T00:19:45.312Z,12.45
2023-05-09T00:22:13.919Z,11.77
2023-05-09T00:24:42.712Z,14.93
2023-05-09T00:27:11.767Z,12.93
2023-05-09T00:29:40.899Z,11.13
2023-05-09T00:32:09.309Z,11.35
2023-05-09T00:34:37.742Z,15.38
2023-05-09T00:37:09.811Z,11.57
2023-05-09T00:39:38.277Z,12.23
2023-05-09T00:42:15.710Z,12.20
2023-05-09T00:44:46.232Z,10.88
2023-05-09T00:47:15.340Z,11.40
2023-05-09T00:49:44.130Z,11.02
2023-05-09T00:52:14.444Z,10.88
2023-05-09T00:54:43.521Z,12.50
2023-05-09T00:57:12.355Z,11.90
2023-05-09T00:59:40.833Z,10.73
2023-05-09T01:02:10.260Z,11.20
2023-05-09T01:04:41.120Z,13.32
2023-05-09T01:07:25.092Z,11.73
2023-05-09T01:09:59.365Z,13.00
2023-05-09T01:12:36.125Z,13.20
2023-05-09T01:15:12.428Z,10.85
2023-05-09T01:17:52.792Z,13.60
2023-05-09T01:20:31.539Z,11.52
2023-05-09T01:23:16.334Z,12.07
2023-05-09T01:25:56.611Z,12.18
2023-05-09T01:28:42.260Z,13.10
2023-05-09T01:31:12.364Z,13.00
2023-05-09T01:33:48.797Z,12.32
2023-05-09T01:36:19.733Z,12.20
2023-05-09T01:38:53.862Z,12.30
2023-05-09T01:41:26.110Z,12.95
2023-05-09T01:44:07.042Z,13.02
2023-05-09T01:46:42.837Z,14.88
2023-05-09T01:49:15.189Z,11.80
2023-05-09T01:51:44.849Z,13.63
2023-05-09T01:54:13.676Z,12.75
2023-05-09T01:56:43.678Z,12.65
2023-05-09T01:59:16.074Z,15.73
2023-05-09T02:01:46.464Z,19.67
2023-05-09T02:04:18.269Z,13.77
2023-05-09T02:06:52.436Z,13.10
2023-05-09T02:09:22.028Z,13.27
2023-05-09T02:11:55.201Z,14.98
2023-05-09T02:14:24.316Z,12.77
2023-05-09T02:16:54.440Z,12.90
2023-05-09T02:19:23.391Z,16.30
2023-05-09T02:21:55.502Z,13.10
2023-05-09T02:24:27.467Z,13.57
2023-05-09T02:26:56.733Z,14.52
2023-05-09T02:29:32.406Z,13.38
2023-05-09T02:32:04.892Z,15.63
2023-05-09T02:34:34.466Z,14.20
2023-05-09T02:37:03.180Z,15.48
2023-05-09T02:39:31.971Z,13.27
2023-05-09T02:42:07.508Z,13.43
2023-05-09T02:44:43.572Z,16.92
2023-05-09T02:47:16.457Z,13.65
2023-05-09T02:49:45.548Z,12.98
2023-05-09T02:52:14.699Z,13.88
2023-05-09T02:54:49.205Z,15.45
2023-05-09T02:57:18.790Z,14.15
2023-05-09T02:59:49.836Z,14.82
2023-05-09T03:02:22.553Z,15.38
2023-05-09T03:04:51.963Z,17.42
2023-05-09T03:07:24.000Z,15.63
2023-05-09T03:10:02.194Z,14.40
2023-05-09T03:12:32.381Z,14.38
2023-05-09T03:15:05.041Z,16.58
2023-05-09T03:17:37.715Z,15.90
2023-05-09T03:20:15.015Z,15.48
2023-05-09T03:22:46.018Z,19.25
2023-05-09T03:25:17.546Z,20.80
2023-05-09T03:27:47.230Z,15.10
2023-05-09T03:30:17.288Z,15.82
2023-05-09T03:32:52.299Z,18.05
2023-05-09T03:35:24.792Z,16.67
2023-05-09T03:37:55.441Z,15.60
2023-05-09T03:40:24.816Z,15.73
2023-05-09T03:42:54.135Z,16.13
2023-05-09T03:45:29.297Z,16.33
2023-05-09T03:47:59.827Z,18.33
2023-05-09T03:50:30.809Z,16.58
2023-05-09T03:53:02.269Z,15.23
2023-05-09T03:55:31.162Z,15.90
2023-05-09T03:58:02.979Z,16.17
2023-05-09T04:00:33.436Z,16.90
2023-05-09T04:03:10.354Z,16.30
2023-05-09T04:05:43.600Z,16.25
2023-05-09T04:08:12.476Z,14.77
2023-05-09T04:10:42.957Z,16.02
2023-05-09T04:13:13.365Z,16.95
2023-05-09T04:15:47.430Z,15.25
2023-05-09T04:18:17.439Z,16.90
2023-05-09T04:20:46.454Z,14.80
2023-05-09T04:23:17.933Z,15.63
2023-05-09T04:25:52.277Z,18.30
2023-05-09T04:28:21.489Z,18.05
2023-05-09T04:30:52.308Z,17.10
2023-05-09T04:33:29.253Z,16.52
2023-05-09T04:36:00.410Z,17.60
2023-05-09T04:38:30.269Z,18.20
2023-05-09T04:41:00.311Z,15.65
2023-05-09T04:43:33.562Z,17.65
2023-05-09T04:46:06.564Z,15.90
2023-05-09T04:48:41.620Z,16.38
2023-05-09T04:51:10.170Z,15.05
2023-05-09T04:53:38.766Z,15.10
2023-05-09T04:56:08.953Z,15.77
2023-05-09T04:58:38.702Z,14.95
2023-05-09T05:01:07.430Z,13.85
2023-05-09T05:03:36.024Z,14.23
2023-05-09T05:06:06.848Z,12.90
2023-05-09T05:08:35.733Z,13.02
2023-05-09T05:11:04.778Z,14.18
2023-05-09T05:13:35.204Z,14.90
2023-05-09T05:16:03.890Z,11.15
2023-05-09T05:18:35.294Z,11.00
2023-05-09T05:21:08.750Z,15.18
2023-05-09T05:23:37.877Z,10.95
2023-05-09T05:26:06.095Z,12.60
2023-05-09T05:28:35.779Z,9.70
2023-05-09T05:31:06.141Z,9.43
2023-05-09T05:33:35.312Z,9.48
2023-05-09T05:36:11.055Z,10.05
2023-05-09T05:38:42.714Z,10.23
2023-05-09T05:41:16.093Z,20.90
2023-05-09T05:43:44.642Z,14.20
2023-05-09T05:46:15.377Z,9.40
2023-05-09T05:48:51.134Z,9.57
2023-05-09T05:51:23.202Z,11.00
2023-05-09T05:56:23.630Z,10.55
2023-05-09T05:58:54.233Z,10.00
2023-05-09T06:01:26.674Z,9.98
2023-05-09T06:03:57.679Z,9.70
2023-05-09T06:06:32.323Z,9.65
2023-05-09T06:09:06.676Z,12.27
2023-05-09T06:11:37.361Z,8.25
2023-05-09T06:14:10.300Z,16.55
2023-05-09T06:16:42.499Z,9.35
2023-05-09T06:19:15.950Z,8.13
2023-05-09T06:21:52.053Z,13.65
2023-05-09T06:24:34.467Z,9.13
2023-05-09T06:27:05.812Z,14.40
2023-05-09T06:29:44.028Z,9.43
2023-05-09T06:32:13.806Z,9.88
2023-05-09T06:34:45.962Z,8.73
2023-05-09T06:37:17.793Z,7.43
2023-05-09T06:39:48.440Z,8.32
2023-05-09T06:42:18.051Z,9.00
2023-05-09T06:44:51.217Z,9.55
2023-05-09T06:47:27.618Z,7.22
2023-05-09T06:49:56.102Z,7.93
2023-05-09T06:52:33.819Z,7.85
2023-05-09T06:55:08.889Z,8.93
2023-05-09T06:57:39.312Z,7.55
2023-05-09T07:00:09.513Z,9.45
2023-05-09T07:02:42.424Z,13.77
2023-05-09T07:05:16.316Z,9.60
2023-05-09T07:07:55.459Z,9.23
2023-05-09T07:10:26.896Z,7.88
2023-05-09T07:12:58.411Z,7.68
2023-05-09T07:15:41.075Z,6.55
2023-05-09T07:18:16.075Z,8.88
2023-05-09T07:20:49.756Z,9.77
2023-05-09T07:23:24.804Z,7.13
2023-05-09T07:26:00.172Z,13.90
2023-05-09T07:28:29.302Z,8.00
2023-05-09T07:30:59.909Z,7.30
2023-05-09T07:33:30.819Z,6.03
2023-05-09T07:36:07.587Z,10.43
2023-05-09T07:38:48.155Z,8.18
2023-05-09T07:41:20.088Z,8.20
2023-05-09T07:46:16.582Z,6.68
2023-05-09T07:48:54.377Z,8.93
2023-05-09T07:51:24.750Z,6.55
2023-05-09T07:53:56.564Z,6.85
2023-05-09T07:56:29.368Z,12.30
2023-05-09T07:59:01.729Z,8.77
2023-05-09T08:01:37.004Z,6.55
2023-05-09T08:04:10.524Z,8.27
2023-05-09T08:06:44.619Z,7.43
2023-05-09T08:09:17.036Z,10.18
2023-05-09T08:11:49.975Z,7.15
2023-05-09T08:14:18.271Z,5.60
2023-05-09T08:16:50.284Z,8.90
2023-05-09T08:19:21.045Z,4.97
2023-05-09T08:21:52.854Z,9.27
2023-05-09T08:24:28.702Z,11.20
2023-05-09T08:27:01.657Z,6.32
2023-05-09T08:29:33.901Z,5.55
2023-05-09T08:32:07.657Z,8.25
2023-05-09T08:34:37.685Z,6.20
2023-05-09T08:37:08.827Z,6.38
2023-05-09T08:39:41.178Z,9.20
2023-05-09T08:42:16.096Z,7.15
2023-05-09T08:44:46.951Z,6.53
2023-05-09T08:47:18.095Z,6.57
2023-05-09T08:49:53.329Z,6.53
2023-05-09T08:52:23.542Z,5.07
2023-05-09T08:54:55.505Z,7.35
2023-05-09T08:57:27.708Z,5.25
2023-05-09T08:59:57.749Z,5.68
2023-05-09T09:02:32.972Z,5.90
2023-05-09T09:05:02.930Z,9.35
2023-05-09T09:07:36.613Z,5.97
2023-05-09T09:10:09.390Z,7.53
2023-05-09T09:12:41.226Z,4.82
2023-05-09T09:17:56.284Z,6.40
2023-05-09T09:20:28.809Z,8.48
2023-05-09T09:23:05.067Z,5.32
2023-05-09T09:25:38.571Z,9.60
2023-05-09T09:28:12.037Z,6.03
2023-05-09T09:30:49.012Z,8.90
2023-05-09T09:33:28.882Z,7.63
2023-05-09T09:36:00.672Z,9.30
2023-05-09T09:41:01.911Z,4.80
2023-05-09T09:43:39.798Z,8.38
2023-05-09T09:46:17.018Z,4.85
2023-05-09T09:48:53.060Z,7.13
2023-05-09T09:51:22.854Z,5.75
2023-05-09T09:53:55.861Z,6.53
2023-05-09T09:56:41.196Z,6.97
2023-05-09T09:59:12.771Z,7.32
2023-05-09T10:02:06.123Z,6.38
2023-05-09T10:04:44.543Z,8.75
2023-05-09T10:07:15.220Z,10.48
2023-05-09T10:09:55.161Z,5.60
2023-05-09T10:12:28.500Z,7.30
2023-05-09T10:14:59.962Z,7.45
2023-05-09T10:17:34.911Z,8.02
2023-05-09T10:20:10.127Z,7.18
2023-05-09T10:22:42.595Z,4.60
2023-05-09T10:25:18.958Z,5.40
2023-05-09T10:27:51.959Z,5.28
2023-05-09T10:30:31.456Z,9.82
2023-05-09T10:33:09.453Z,5.97
2023-05-09T10:35:46.239Z,6.53
2023-05-09T10:38:18.896Z,6.72
2023-05-09T10:40:53.536Z,8.60
2023-05-09T10:43:27.244Z,6.38
2023-05-09T10:45:56.860Z,6.63
2023-05-09T10:48:31.255Z,9.48
2023-05-09T10:51:03.141Z,8.15
2023-05-09T10:53:46.847Z,7.53
2023-05-09T10:56:27.755Z,7.63
2023-05-09T10:59:05.476Z,5.10
2023-05-09T11:01:39.430Z,4.70
2023-05-09T11:04:11.807Z,6.85
2023-05-09T11:06:56.499Z,14.30
2023-05-09T11:09:33.195Z,9.63
2023-05-09T11:12:10.366Z,7.10
2023-05-09T11:14:44.394Z,4.93
2023-05-09T11:17:30.554Z,6.25
2023-05-09T11:20:04.755Z,5.53
2023-05-09T11:22:43.591Z,9.18
2023-05-09T11:25:19.953Z,5.10
2023-05-09T11:27:59.060Z,7.45
2023-05-09T11:30:46.331Z,5.82
2023-05-09T11:33:26.268Z,6.43
2023-05-09T11:36:25.508Z,5.93
2023-05-09T11:39:06.538Z,5.07
2023-05-09T11:41:43.239Z,6.43
2023-05-09T11:44:19.038Z,6.22
2023-05-09T11:46:52.275Z,5.32
2023-05-09T11:49:22.699Z,9.48
2023-05-09T11:51:52.529Z,9.45
2023-05-09T11:54:27.381Z,10.63
2023-05-09T11:57:05.329Z,6.63
2023-05-09T11:59:39.284Z,5.82
2023-05-09T12:02:11.748Z,11.15
2023-05-09T12:04:40.590Z,6.57
2023-05-09T12:07:12.505Z,9.55
2023-05-09T12:12:12.876Z,8.35
2023-05-09T12:14:52.619Z,7.45
2023-05-09T12:17:26.595Z,8.07
2023-05-09T12:19:59.862Z,5.68
2023-05-09T12:22:32.611Z,6.18
2023-05-09T12:25:08.811Z,7.13
2023-05-09T12:27:41.413Z,5.93
2023-05-09T12:30:14.238Z,7.53
2023-05-09T12:32:44.684Z,8.20
2023-05-09T12:35:16.734Z,9.13
2023-05-09T12:37:58.301Z,5.72
2023-05-09T12:40:28.897Z,6.10
2023-05-09T12:43:04.633Z,7.93
2023-05-09T12:45:35.359Z,6.45
2023-05-09T12:48:09.556Z,5.88
2023-05-09T12:50:41.606Z,7.43
2023-05-09T12:53:17.216Z,5.80
2023-05-09T12:55:47.754Z,13.23
2023-05-09T12:58:18.693Z,10.60
2023-05-09T13:00:49.162Z,8.07
2023-05-09T13:03:31.455Z,6.22
2023-05-09T13:06:00.748Z,6.63
2023-05-09T13:08:37.615Z,6.25
2023-05-09T13:11:16.147Z,7.45
2023-05-09T13:13:45.460Z,8.73
2023-05-09T13:16:17.791Z,7.28
2023-05-09T13:18:52.113Z,5.65
2023-05-09T13:21:21.099Z,6.10
2023-05-09T13:23:50.227Z,5.45
2023-05-09T13:26:25.015Z,6.78
2023-05-09T13:28:56.751Z,6.35
2023-05-09T13:34:08.265Z,5.10
2023-05-09T13:36:43.687Z,7.90
2023-05-09T13:39:16.705Z,6.93
2023-05-09T13:41:57.607Z,5.50
2023-05-09T13:44:27.646Z,6.80
2023-05-09T13:47:00.465Z,4.95
2023-05-09T13:49:34.228Z,7.53
2023-05-09T13:52:05.297Z,5.72
2023-05-09T13:54:35.133Z,8.45
2023-05-09T13:57:06.279Z,5.57
2023-05-09T13:59:41.221Z,7.57
2023-05-09T14:02:12.218Z,5.80
2023-05-09T14:04:47.715Z,6.80
2023-05-09T14:07:20.594Z,5.53
2023-05-09T14:09:58.803Z,6.05
2023-05-09T14:12:39.693Z,6.18
2023-05-09T14:15:12.600Z,10.77
2023-05-09T14:17:43.740Z,6.43
2023-05-09T14:20:17.182Z,8.95
2023-05-09T14:22:49.473Z,6.13
2023-05-09T14:25:23.810Z,7.45
2023-05-09T14:28:00.562Z,7.00
2023-05-09T14:30:33.314Z,7.45
2023-05-09T14:33:01.870Z,5.20
2023-05-09T14:35:34.319Z,6.10
2023-05-09T14:38:05.862Z,14.75
2023-05-09T14:40:34.355Z,8.38
2023-05-09T14:43:03.242Z,7.10
2023-05-09T14:45:33.129Z,5.68
2023-05-09T14:48:01.817Z,5.88
2023-05-09T14:50:34.595Z,7.57
2023-05-09T14:53:07.856Z,6.45
2023-05-09T14:55:36.625Z,6.18
2023-05-09T14:58:05.433Z,7.18
2023-05-09T15:00:35.185Z,8.73
2023-05-09T15:03:04.655Z,6.20
2023-05-09T15:05:34.624Z,5.60
2023-05-09T15:08:03.905Z,6.85
2023-05-09T15:10:38.567Z,5.97
2023-05-09T15:13:07.172Z,7.22
2023-05-09T15:15:38.323Z,8.43
2023-05-09T15:18:10.234Z,6.65
2023-05-09T15:20:40.286Z,14.77
2023-05-09T15:23:12.103Z,7.97
2023-05-09T15:25:44.585Z,10.40
2023-05-09T15:28:13.037Z,7.78
2023-05-09T15:30:41.771Z,9.00
2023-05-09T15:33:10.690Z,5.57
2023-05-09T15:35:41.128Z,7.82
2023-05-09T15:38:14.502Z,6.88
2023-05-09T15:40:43.400Z,5.05
2023-05-09T15:43:12.986Z,9.43
2023-05-09T15:45:46.832Z,4.50
2023-05-09T15:48:17.314Z,6.82
2023-05-09T15:50:47.701Z,7.72
2023-05-09T15:53:17.633Z,5.60
2023-05-09T15:55:46.499Z,6.70
2023-05-09T15:58:17.852Z,6.72
2023-05-09T16:00:46.621Z,7.15
2023-05-09T16:03:15.637Z,8.95
2023-05-09T16:05:44.114Z,6.72
2023-05-09T16:08:14.498Z,8.27
2023-05-09T16:10:42.952Z,8.98
2023-05-09T16:13:11.334Z,7.28
2023-05-09T16:15:40.135Z,5.03
2023-05-09T16:18:11.512Z,7.35
2023-05-09T16:20:40.382Z,6.38
2023-05-09T16:23:09.743Z,5.88
2023-05-09T16:25:41.429Z,10.90
2023-05-09T16:28:10.849Z,8.43
2023-05-09T16:30:39.447Z,9.90
2023-05-09T16:33:08.121Z,14.82
2023-05-09T16:35:37.330Z,7.47
2023-05-09T16:38:08.487Z,11.10
2023-05-09T16:40:37.864Z,9.95
2023-05-09T16:43:08.280Z,6.63
2023-05-09T16:45:36.533Z,18.38
2023-05-09T16:48:08.272Z,6.75
2023-05-09T16:50:43.422Z,9.45
2023-05-09T16:53:12.024Z,5.88
2023-05-09T16:55:40.975Z,8.98
2023-05-09T16:58:11.202Z,8.55
2023-05-09T17:00:40.174Z,5.97
2023-05-09T17:03:09.417Z,5.68
2023-05-09T17:05:38.622Z,6.10
2023-05-09T17:08:08.788Z,7.88
2023-05-09T17:10:42.003Z,9.07
2023-05-09T17:13:12.464Z,7.50
2023-05-09T17:15:41.029Z,6.38
2023-05-09T17:18:36.785Z,10.93
2023-05-09T17:21:07.082Z,6.45
2023-05-09T17:23:35.711Z,9.18
2023-05-09T17:26:05.067Z,10.68
2023-05-09T17:28:35.269Z,8.52
2023-05-09T17:31:03.903Z,6.97
2023-05-09T17:33:39.920Z,8.90
2023-05-09T17:36:09.689Z,7.70
2023-05-09T17:38:38.687Z,9.48
2023-05-09T17:41:08.585Z,9.40
2023-05-09T17:43:39.775Z,7.63
2023-05-09T17:46:08.166Z,11.57
2023-05-09T17:48:37.161Z,10.20
2023-05-09T17:51:07.372Z,8.75
2023-05-09T17:53:36.465Z,8.77
2023-05-09T17:56:06.222Z,9.80
2023-05-09T17:58:35.316Z,8.15
2023-05-09T18:01:05.863Z,10.48
2023-05-09T18:03:34.433Z,10.52
2023-05-09T18:06:03.885Z,9.05
2023-05-09T18:08:34.016Z,6.82
2023-05-09T18:11:02.401Z,6.85
2023-05-09T18:13:31.783Z,8.35
2023-05-09T18:16:01.104Z,11.73
2023-05-09T18:18:32.534Z,13.02
2023-05-09T18:21:01.128Z,8.77
2023-05-09T18:23:33.200Z,8.68
2023-05-09T18:28:39.455Z,8.25
2023-05-09T18:31:13.513Z,9.15
2023-05-09T18:33:47.618Z,9.02
2023-05-09T18:36:17.548Z,8.48
2023-05-09T18:38:48.045Z,9.35
2023-05-09T18:41:16.702Z,7.68
2023-05-09T18:43:46.937Z,15.00
2023-05-09T18:46:18.098Z,8.45
2023-05-09T18:48:51.741Z,11.82
2023-05-09T18:51:21.745Z,9.13
2023-05-09T18:53:50.357Z,8.88
2023-05-09T18:56:21.610Z,9.07
2023-05-09T18:58:51.592Z,9.10
2023-05-09T19:01:22.111Z,10.05
2023-05-09T19:03:54.719Z,8.48
2023-05-09T19:06:24.160Z,8.95
2023-05-09T19:08:54.665Z,9.40
2023-05-09T19:11:24.458Z,10.20
2023-05-09T19:13:54.982Z,10.27
2023-05-09T19:16:26.949Z,10.65
2023-05-09T19:18:58.526Z,10.02
2023-05-09T19:21:29.479Z,10.35
2023-05-09T19:23:58.392Z,13.93
2023-05-09T19:26:29.245Z,11.93
2023-05-09T19:29:06.505Z,10.85
2023-05-09T19:31:35.990Z,10.57
2023-05-09T19:34:06.348Z,10.35
2023-05-09T19:36:35.405Z,12.57
2023-05-09T19:39:08.788Z,10.05
2023-05-09T19:41:37.864Z,10.68
2023-05-09T19:44:08.360Z,12.80
2023-05-09T19:46:38.597Z,8.82
2023-05-09T19:49:09.110Z,8.48
2023-05-09T19:51:38.257Z,8.77
2023-05-09T19:54:09.102Z,10.80
2023-05-09T19:56:40.708Z,10.15
2023-05-09T20:01:41.372Z,9.52
2023-05-09T20:04:11.341Z,10.88
2023-05-09T20:06:42.456Z,8.52
2023-05-09T20:09:17.840Z,9.30
2023-05-09T20:11:48.344Z,11.63
2023-05-09T20:14:17.187Z,8.65
2023-05-09T20:16:46.368Z,9.77
2023-05-09T20:19:17.637Z,10.35
2023-05-09T20:21:46.789Z,10.55
2023-05-09T20:24:15.573Z,9.00
2023-05-09T20:26:48.484Z,10.25
2023-05-09T20:29:17.385Z,13.60
2023-05-09T20:31:47.457Z,9.52
2023-05-09T20:34:23.038Z,9.38
2023-05-09T20:36:53.863Z,8.45
2023-05-09T20:39:25.166Z,8.73
2023-05-09T20:41:55.800Z,10.48
2023-05-09T20:44:24.105Z,11.13
2023-05-09T20:46:54.103Z,10.32
2023-05-09T20:49:24.286Z,8.43
2023-05-09T20:51:52.699Z,9.00
2023-05-09T20:54:24.143Z,8.45
2023-05-09T20:56:53.955Z,9.00
2023-05-09T20:59:22.584Z,10.25
2023-05-09T21:01:53.419Z,9.65
2023-05-09T21:04:26.827Z,9.40
2023-05-09T21:06:59.383Z,11.05
2023-05-09T21:09:28.005Z,9.95
2023-05-09T21:11:57.379Z,10.70
2023-05-09T21:14:30.061Z,10.18
2023-05-09T21:17:02.859Z,9.43
2023-05-09T21:19:34.880Z,8.30
2023-05-09T21:24:37.264Z,8.27
2023-05-09T21:27:11.773Z,8.73
2023-05-09T21:29:41.045Z,9.07
2023-05-09T21:32:10.272Z,8.90
2023-05-09T21:34:41.238Z,12.32
2023-05-09T21:37:11.942Z,9.13
2023-05-09T21:39:41.421Z,9.00
2023-05-09T21:42:09.969Z,8.95
2023-05-09T21:44:38.643Z,11.88
2023-05-09T21:47:07.378Z,11.43
2023-05-09T21:49:36.838Z,9.52
2023-05-09T21:52:10.887Z,11.95
2023-05-09T21:54:39.392Z,8.50
2023-05-09T21:57:10.096Z,8.35
2023-05-09T21:59:38.687Z,9.90
2023-05-09T22:02:09.625Z,9.88
2023-05-09T22:04:40.501Z,9.52
2023-05-09T22:07:13.875Z,10.30
2023-05-09T22:09:43.346Z,10.07
2023-05-09T22:12:12.282Z,9.00
2023-05-09T22:14:52.973Z,10.07
2023-05-09T22:17:26.787Z,8.75
2023-05-09T22:19:56.884Z,11.75
2023-05-09T22:22:33.124Z,11.20
2023-05-09T22:25:02.670Z,11.85
2023-05-09T22:27:31.951Z,9.50
2023-05-09T22:30:00.651Z,9.48
2023-05-09T22:32:29.737Z,9.90
2023-05-09T22:34:58.350Z,9.23
2023-05-09T22:37:28.687Z,10.60
2023-05-09T22:39:57.376Z,10.57
2023-05-09T22:42:25.909Z,10.30
2023-05-09T22:44:54.597Z,8.82
2023-05-09T22:47:23.446Z,9.02
2023-05-09T22:49:52.938Z,11.00
2023-05-09T22:52:21.668Z,8.07
2023-05-09T22:54:53.111Z,11.98
2023-05-09T22:57:23.969Z,9.07
2023-05-09T22:59:53.931Z,8.00
2023-05-09T23:02:22.797Z,11.30
2023-05-09T23:11:56.705Z,10.90
2023-05-09T23:14:25.283Z,10.07
2023-05-09T23:16:54.473Z,10.13
2023-05-09T23:19:22.854Z,9.18
2023-05-09T23:21:53.198Z,12.38
2023-05-09T23:24:21.492Z,9.45
2023-05-09T23:26:50.090Z,13.15
2023-05-09T23:29:23.954Z,10.02
2023-05-09T23:31:53.558Z,9.23
2023-05-09T23:34:22.906Z,10.80
2023-05-09T23:36:51.811Z,8.27
2023-05-09T23:39:20.355Z,13.35
2023-05-09T23:41:48.546Z,11.20
2023-05-09T23:44:18.196Z,9.68
2023-05-09T23:46:49.196Z,11.35
2023-05-09T23:49:17.597Z,13.95
2023-05-09T23:51:48.087Z,9.65
2023-05-09T23:54:17.242Z,11.43
2023-05-09T23:56:45.762Z,9.55
2023-05-09T23:59:14.247Z,10.27
